KLWS/LWS METAR and TAF weather

Enter ICAO airport designator
Station Type Date Time Source
KLWS METAR 2019/04/25 09:56 UTC NOAA

KLWS 250956Z AUTO 00000KT 10SM CLR 07/01 A3020 RMK AO2 SLP228 T00720006


Station Type Date Time Source
KLWS Decoded METAR 2019/04/25 09:56 UTC NOAA

LEWISTON NEZ PERCE CO AIRPORT , ID, United States (KLWS) 46-22N 117-01W 438M
Apr 25, 2019 - 05:56 AM EDT / 2019.04.25 0956 UTC
Wind: Calm:0
Visibility: 10 mile(s):0
Sky conditions: clear
Temperature: 45.0 F (7.2 C)
Dew Point: 33.1 F (0.6 C)
Relative Humidity: 62%
Pressure (altimeter): 30.2 in. Hg (1022 hPa)
ob: KLWS 250956Z AUTO 00000KT 10SM CLR 07/01 A3020 RMK AO2 SLP228 T00720006
cycle: 10

Station Type Date Time Source
KLWS TAF 2019/04/25 06:39 UTC NOAA

TAF KLWS 250536Z 2506/2606 18006KT P6SM SKC
FM250800 VRB03KT P6SM SKC
FM251900 VRB04KT P6SM BKN250

Example: see airport list